Norfolk, Virginia
Traffic Map
Current Weather Conditions
Norfolk, Virginia
Overcast
Overcast

Feels Like: 2°
Wind Chill: Ceiling: 9500
Heat Index: Visibility: 10mi
Dew Point: -2° Wind: 7mph
Humidity: 65% Direction: 30° (NNE)
Pressure: 30.09in Gusts: 0mph
Raw Report DataKORF 190351Z AUTO 03006KT 10SM OVC095 04/M02 A3009 RMK AO2 SLP189 T00441017 TSNO
Traffic Incident Summary
Active as of:
Severity:
Category:
InformationThere was an issue retrieving the traffic information for this location. Please try a different location or try again shortly.
Advertisements
Track Severe Weather on mobile